Airfield :
LOGIN :

Register | Disclaimer

   EN    FR    IT 

 










Legend :    VFR   Marginal VFR   IFR   Intensive IFR   Very Intensive IFR
Visi :
Ceiling :
>= 8 km
>= 3000ft
5 to 8 km
1000 to 3000 ft
1500m to 5 km
500 to 1000 ft
800 to 1500m
200 to 500 ft
< 800m
< 200 ft
Symbols :   Thunderstorms  Fog  Heavy snow  Heavy precipitations  Wind > 20 kt
SIGMETs :     Misc.  Thunderstorms  Icing  Turbulence  Mountain Waves  Volcanic Ashes






- Airport Elevation : 348 ft
- IATA code : STN


EGSS - London Stansted

CURRENT METAR :
  • 110220Z AUTO 23008KT 9999 NCD 04/02 Q1008

EXPIRED METARs :
  • 110150Z AUTO 24009KT 9999 NCD 05/03 Q1008
  • 110120Z AUTO 24008KT 9999 NCD 06/03 Q1007
  • 110050Z AUTO 24008KT 9999 NCD 06/04 Q1007
  • 110020Z AUTO 26006KT 9999 NCD 06/03 Q1007
  • 102350Z AUTO 26009KT 9999 NCD 07/03 Q1007

TAF TAF EGSS
Valid from the 11 at 00:00 until the 12 at 06:00 UTC


102304Z 1100/1206 25010KT 9999 FEW030
PROB40 1104/1109 6000
BECMG 1106/1109 19008KT
TEMPO 1115/1119 6000 SHRA BKN009
BECMG 1116/1119 26010KT
BECMG 1202/1205 20006KT
PROB30
TEMPO 1202/1206 BKN004
ATIS : +44 1279 669 325



MET'MAP, your aeronautical weather chart ! - Copyright ORBIFLY December 2007 - Disclaimer

ORBIFLY MET'MAP TEAM :

Programming & Development : Alexandra Zaïnal
Concept & original design : Baudouin d'Aumeries
Assistance for programming : Marc-Olivier Méhu
Technical & hardware support : Manuel Goepfert

Contact : metmap@orbifly.com




SOURCES & CREDITS :

   NOAA